createdAt,value
2022-12-12T00:01:15.725Z,-2.50
2022-12-12T00:04:02.289Z,-2.63
2022-12-12T00:06:48.754Z,-3.09
2022-12-12T00:09:35.000Z,-2.65
2022-12-12T00:12:21.426Z,-2.65
2022-12-12T00:15:08.307Z,-2.93
2022-12-12T00:17:54.595Z,-2.61
2022-12-12T00:20:40.926Z,-2.80
2022-12-12T00:23:27.298Z,-2.67
2022-12-12T00:26:24.105Z,-2.59
2022-12-12T00:29:11.352Z,-2.57
2022-12-12T00:31:57.620Z,-2.80
2022-12-12T00:34:43.752Z,-2.67
2022-12-12T00:37:30.221Z,-2.41
2022-12-12T00:40:16.698Z,-2.31
2022-12-12T00:43:03.756Z,-2.23
2022-12-12T00:45:50.228Z,-2.20
2022-12-12T00:48:36.417Z,-2.23
2022-12-12T00:51:24.067Z,-2.51
2022-12-12T00:54:10.478Z,-2.47
2022-12-12T00:56:56.748Z,-2.23
2022-12-12T00:59:43.378Z,-2.34
2022-12-12T01:02:29.661Z,-2.06
2022-12-12T01:05:16.290Z,-1.89
2022-12-12T01:08:02.622Z,-2.12
2022-12-12T01:10:49.332Z,-2.00
2022-12-12T01:13:35.917Z,-2.21
2022-12-12T01:16:23.904Z,-2.28
2022-12-12T01:19:10.288Z,-2.42
2022-12-12T01:21:56.576Z,-2.41
2022-12-12T01:24:42.927Z,-2.49
2022-12-12T01:27:29.207Z,-2.38
2022-12-12T01:30:18.605Z,-2.46
2022-12-12T01:33:05.187Z,-2.39
2022-12-12T01:35:51.332Z,-2.82
2022-12-12T01:38:37.357Z,-2.82
2022-12-12T01:41:24.213Z,-2.73
2022-12-12T01:44:38.998Z,-2.69
2022-12-12T01:47:25.980Z,-3.18
2022-12-12T01:50:12.608Z,-3.00
2022-12-12T01:52:58.863Z,-3.14
2022-12-12T01:55:48.115Z,-3.23
2022-12-12T01:58:35.098Z,-3.44
2022-12-12T02:01:22.511Z,-3.04
2022-12-12T02:04:10.329Z,-2.98
2022-12-12T02:06:57.156Z,-3.05
2022-12-12T02:09:44.080Z,-3.07
2022-12-12T02:12:30.779Z,-3.21
2022-12-12T02:15:17.606Z,-3.13
2022-12-12T02:18:30.375Z,-3.20
2022-12-12T02:21:31.440Z,-3.52
2022-12-12T02:24:35.520Z,-3.30
2022-12-12T02:27:43.443Z,-3.50
2022-12-12T02:30:45.067Z,-3.59
2022-12-12T02:33:46.701Z,-3.79
2022-12-12T02:36:54.718Z,-3.75
2022-12-12T02:39:56.559Z,-3.79
2022-12-12T02:43:19.518Z,-3.65
2022-12-12T02:46:11.279Z,-3.92
2022-12-12T02:49:06.723Z,-4.20
2022-12-12T02:51:54.929Z,-4.19
2022-12-12T02:54:41.163Z,-4.69
2022-12-12T02:57:28.089Z,-4.53
2022-12-12T03:00:17.871Z,-4.74
2022-12-12T03:03:55.644Z,-4.70
2022-12-12T03:07:18.356Z,-5.01
2022-12-12T03:10:16.851Z,-4.76
2022-12-12T03:13:34.180Z,-4.87
2022-12-12T03:16:47.536Z,-5.14
2022-12-12T03:19:46.333Z,-5.19
2022-12-12T03:23:23.520Z,-4.96
2022-12-12T03:26:14.627Z,-5.07
2022-12-12T03:29:11.435Z,-5.18
2022-12-12T03:32:08.166Z,-4.64
2022-12-12T03:35:10.516Z,-4.53
2022-12-12T03:38:12.158Z,-4.43
2022-12-12T03:41:03.026Z,-4.68
2022-12-12T03:44:08.095Z,-4.72
2022-12-12T03:47:00.743Z,-4.74
2022-12-12T03:50:11.411Z,-5.08
2022-12-12T03:53:03.610Z,-5.48
2022-12-12T03:56:05.174Z,-5.11
2022-12-12T03:59:27.289Z,-5.26
2022-12-12T04:02:24.576Z,-4.94
2022-12-12T04:05:17.384Z,-4.88
2022-12-12T04:08:12.863Z,-5.29
2022-12-12T04:11:24.893Z,-5.27
2022-12-12T04:14:41.762Z,-5.25
2022-12-12T04:17:37.877Z,-4.96
2022-12-12T04:20:48.205Z,-4.96
2022-12-12T04:23:55.690Z,-5.00
2022-12-12T04:26:48.482Z,-5.10
2022-12-12T04:29:40.589Z,-5.08
2022-12-12T04:32:26.867Z,-5.07
2022-12-12T04:35:18.943Z,-4.96
2022-12-12T04:38:09.625Z,-4.96
2022-12-12T04:40:59.359Z,-4.52
2022-12-12T04:43:48.484Z,-4.65
2022-12-12T04:46:37.191Z,-4.56
2022-12-12T04:49:27.784Z,-4.26
2022-12-12T04:52:16.866Z,-4.30
2022-12-12T04:55:05.449Z,-4.21
2022-12-12T04:57:54.721Z,-4.17
2022-12-12T05:00:52.077Z,-4.07
2022-12-12T05:03:47.941Z,-4.13
2022-12-12T05:06:43.116Z,-4.24
2022-12-12T05:09:29.523Z,-4.28
2022-12-12T05:12:17.249Z,-4.28
2022-12-12T05:15:04.120Z,-4.34
2022-12-12T05:18:07.365Z,-4.39
2022-12-12T05:20:53.924Z,-4.38
2022-12-12T05:23:40.189Z,-4.14
2022-12-12T05:26:34.031Z,-4.01
2022-12-12T05:29:20.355Z,-4.01
2022-12-12T05:32:06.664Z,-4.14
2022-12-12T05:34:52.777Z,-4.11
2022-12-12T05:37:38.966Z,-3.91
2022-12-12T05:40:25.238Z,-3.86
2022-12-12T05:43:11.502Z,-4.10
2022-12-12T05:45:58.509Z,-4.13
2022-12-12T05:48:50.255Z,-4.25
2022-12-12T05:51:37.188Z,-4.03
2022-12-12T05:54:23.783Z,-4.19
2022-12-12T05:57:09.836Z,-4.14
2022-12-12T05:59:56.044Z,-4.09
2022-12-12T06:02:42.264Z,-3.88
2022-12-12T06:05:28.796Z,-4.11
2022-12-12T06:08:14.875Z,-4.21
2022-12-12T06:11:04.028Z,-4.02
2022-12-12T06:13:50.273Z,-4.40
2022-12-12T06:16:36.883Z,-4.20
2022-12-12T06:19:23.168Z,-4.40
2022-12-12T06:22:09.705Z,-3.95
2022-12-12T06:24:55.970Z,-3.93
2022-12-12T06:27:42.504Z,-4.15
2022-12-12T06:30:29.073Z,-3.98
2022-12-12T06:33:15.365Z,-3.98
2022-12-12T06:36:07.580Z,-4.10
2022-12-12T06:38:57.913Z,-3.93
2022-12-12T06:41:45.209Z,-4.04
2022-12-12T06:44:33.034Z,-4.32
2022-12-12T06:47:19.656Z,-4.07
2022-12-12T06:50:06.012Z,-3.84
2022-12-12T06:52:52.524Z,-3.81
2022-12-12T06:55:43.492Z,-3.51
2022-12-12T06:58:30.044Z,-3.63
2022-12-12T07:01:19.479Z,-3.93
2022-12-12T07:04:05.844Z,-3.94
2022-12-12T07:06:52.700Z,-4.19
2022-12-12T07:09:38.967Z,-3.82
2022-12-12T07:12:25.119Z,-4.40
2022-12-12T07:15:12.388Z,-4.48
2022-12-12T07:17:58.976Z,-4.57
2022-12-12T07:20:46.346Z,-4.68
2022-12-12T07:23:33.245Z,-5.08
2022-12-12T07:26:21.579Z,-5.10
2022-12-12T07:29:08.181Z,-5.05
2022-12-12T07:31:54.621Z,-4.93
2022-12-12T07:34:40.856Z,-4.53
2022-12-12T07:37:26.983Z,-4.66
2022-12-12T07:40:13.493Z,-4.51
2022-12-12T07:43:00.363Z,-4.17
2022-12-12T07:45:48.062Z,-4.06
2022-12-12T07:48:35.041Z,-4.21
2022-12-12T07:51:22.010Z,-3.98
2022-12-12T07:54:08.252Z,-3.94
2022-12-12T07:56:54.562Z,-3.70
2022-12-12T07:59:41.158Z,-3.51
2022-12-12T08:02:27.256Z,-3.13
2022-12-12T08:05:13.836Z,-3.05
2022-12-12T08:08:00.310Z,-3.22
2022-12-12T08:10:46.790Z,-3.04
2022-12-12T08:13:35.189Z,-3.00
2022-12-12T08:16:27.473Z,-2.92
2022-12-12T08:19:14.067Z,-3.11
2022-12-12T08:22:00.852Z,-2.57
2022-12-12T08:24:49.092Z,-2.76
2022-12-12T08:27:35.990Z,-2.63
2022-12-12T08:30:22.228Z,-3.33
2022-12-12T08:33:08.491Z,-3.11
2022-12-12T08:35:54.877Z,-2.65
2022-12-12T08:38:41.993Z,-2.62
2022-12-12T08:41:28.370Z,-2.97
2022-12-12T08:44:17.285Z,-2.60
2022-12-12T08:47:04.062Z,-2.58
2022-12-12T08:49:51.469Z,-2.39
2022-12-12T08:52:38.075Z,-2.45
2022-12-12T08:55:24.828Z,-2.20
2022-12-12T08:58:12.328Z,-2.02
2022-12-12T09:00:59.229Z,-1.85
2022-12-12T09:03:46.360Z,-1.76
2022-12-12T09:06:32.934Z,-1.90
2022-12-12T09:09:19.213Z,-2.03
2022-12-12T09:12:05.911Z,-1.79
2022-12-12T09:14:52.443Z,-1.86
2022-12-12T09:17:38.998Z,-1.92
2022-12-12T09:20:25.344Z,-1.90
2022-12-12T09:23:11.657Z,-1.98
2022-12-12T09:26:03.265Z,-2.01
2022-12-12T09:28:49.891Z,-1.96
2022-12-12T09:31:37.698Z,-1.66
2022-12-12T09:34:24.105Z,-1.43
2022-12-12T09:37:10.547Z,-1.39
2022-12-12T09:39:57.390Z,-1.40
2022-12-12T09:42:49.116Z,-1.36
2022-12-12T09:45:37.643Z,-1.26
2022-12-12T09:48:28.065Z,-1.37
2022-12-12T09:51:14.676Z,-1.56
2022-12-12T09:54:01.324Z,-1.29
2022-12-12T09:57:11.204Z,-1.34
2022-12-12T10:00:07.945Z,-1.25
2022-12-12T10:03:22.808Z,-1.51
2022-12-12T10:06:36.525Z,-1.25
2022-12-12T10:09:50.721Z,-1.24
2022-12-12T10:12:38.073Z,-1.35
2022-12-12T10:15:39.201Z,-1.10
2022-12-12T10:18:32.565Z,-1.15
2022-12-12T10:21:27.533Z,-1.01
2022-12-12T10:24:29.517Z,-0.75
2022-12-12T10:27:16.153Z,-0.87
2022-12-12T10:30:15.894Z,-1.47
2022-12-12T10:33:31.104Z,-1.45
2022-12-12T10:36:45.495Z,-1.38
2022-12-12T10:39:51.230Z,-1.62
2022-12-12T10:42:37.951Z,-1.44
2022-12-12T10:45:56.329Z,-1.45
2022-12-12T10:48:44.332Z,-1.58
2022-12-12T10:51:31.196Z,-2.02
2022-12-12T10:54:21.702Z,-1.88
2022-12-12T10:57:20.183Z,-1.88
2022-12-12T11:00:18.487Z,-1.84
2022-12-12T11:03:47.760Z,-2.07
2022-12-12T11:06:40.069Z,-1.90
2022-12-12T11:09:28.602Z,-1.90
2022-12-12T11:12:16.545Z,-1.83
2022-12-12T11:15:14.086Z,-2.31
2022-12-12T11:18:05.913Z,-1.90
2022-12-12T11:21:07.876Z,-1.86
2022-12-12T11:23:57.219Z,-1.80
2022-12-12T11:26:53.274Z,-1.65
2022-12-12T11:29:47.324Z,-1.47
2022-12-12T11:32:44.566Z,-1.58
2022-12-12T11:35:41.172Z,-1.78
2022-12-12T11:38:45.197Z,-1.33
2022-12-12T11:41:57.873Z,-1.25
2022-12-12T11:44:45.083Z,-1.27
2022-12-12T11:47:40.684Z,-1.27
2022-12-12T11:50:29.633Z,-1.37
2022-12-12T11:53:16.021Z,-1.25
2022-12-12T11:56:08.517Z,-0.94
2022-12-12T11:59:07.882Z,-0.75
2022-12-12T12:02:15.596Z,-0.66
2022-12-12T12:05:39.685Z,-0.74
2022-12-12T12:08:45.296Z,-1.06
2022-12-12T12:11:41.748Z,-1.35
2022-12-12T12:14:46.362Z,-1.24
2022-12-12T12:17:48.990Z,-1.21
2022-12-12T12:20:51.434Z,-0.93
2022-12-12T12:24:02.720Z,-0.98
2022-12-12T12:27:08.724Z,-0.85
2022-12-12T12:30:22.093Z,-1.22
2022-12-12T12:33:24.669Z,-0.86
2022-12-12T12:36:21.021Z,-0.68
2022-12-12T12:39:35.317Z,-0.54
2022-12-12T12:42:33.273Z,-0.53
2022-12-12T12:45:40.114Z,-0.43
2022-12-12T12:48:36.449Z,-0.71
2022-12-12T12:51:38.704Z,-0.32
2022-12-12T12:54:30.915Z,-0.28
2022-12-12T12:57:24.321Z,-0.33
2022-12-12T13:00:18.750Z,-0.08
2022-12-12T13:03:17.312Z,-0.19
2022-12-12T13:06:11.179Z,-0.07
2022-12-12T13:09:04.324Z,0.06
2022-12-12T13:11:58.770Z,0.03
2022-12-12T13:14:53.784Z,-0.10
2022-12-12T13:18:04.373Z,0.01
2022-12-12T13:21:12.088Z,-0.11
2022-12-12T13:24:07.953Z,0.10
2022-12-12T13:27:16.699Z,-0.04
2022-12-12T13:30:10.345Z,0.13
2022-12-12T13:33:12.880Z,0.03
2022-12-12T13:36:30.313Z,0.22
2022-12-12T13:39:35.781Z,-0.23
2022-12-12T13:42:22.217Z,-0.29
2022-12-12T13:45:44.581Z,-0.13
2022-12-12T13:48:46.006Z,-0.44
2022-12-12T13:51:42.066Z,-0.11
2022-12-12T13:54:43.648Z,-0.15
2022-12-12T13:57:31.906Z,-0.21
2022-12-12T14:00:19.452Z,-0.19
2022-12-12T14:03:12.039Z,-0.08
2022-12-12T14:06:10.594Z,0.31
2022-12-12T14:08:58.517Z,0.74
2022-12-12T14:11:45.077Z,0.17
2022-12-12T14:14:32.747Z,0.31
2022-12-12T14:17:22.279Z,0.12
2022-12-12T14:20:41.159Z,-0.18
2022-12-12T14:23:29.212Z,-0.38
2022-12-12T14:26:38.648Z,-0.88
2022-12-12T14:29:28.235Z,-0.92
2022-12-12T14:32:38.182Z,-0.83
2022-12-12T14:35:45.492Z,-1.31
2022-12-12T14:39:04.365Z,-1.30
2022-12-12T14:41:53.112Z,-1.73
2022-12-12T14:44:47.782Z,-1.46
2022-12-12T14:47:35.625Z,-1.78
2022-12-12T14:50:21.930Z,-1.89
2022-12-12T14:53:16.726Z,-1.76
2022-12-12T14:56:10.214Z,-2.11
2022-12-12T14:59:04.694Z,-1.81
2022-12-12T15:01:53.357Z,-1.85
2022-12-12T15:04:40.480Z,-1.97
2022-12-12T15:07:35.489Z,-1.97
2022-12-12T15:10:29.066Z,-2.30
2022-12-12T15:13:20.956Z,-2.24
2022-12-12T15:16:07.381Z,-2.52
2022-12-12T15:18:54.716Z,-2.62
2022-12-12T15:21:44.500Z,-2.85
2022-12-12T15:24:38.219Z,-2.64
2022-12-12T15:27:53.733Z,-2.52
2022-12-12T15:30:44.636Z,-2.80
2022-12-12T15:33:38.511Z,-2.98
2022-12-12T15:36:28.253Z,-3.34
2022-12-12T15:39:16.264Z,-3.36
2022-12-12T15:42:03.032Z,-3.50
2022-12-12T15:44:50.619Z,-3.61
2022-12-12T15:47:37.148Z,-3.82
2022-12-12T15:50:46.623Z,-3.77
2022-12-12T15:54:00.464Z,-4.00
2022-12-12T15:56:50.254Z,-4.10
2022-12-12T15:59:37.244Z,-4.03
2022-12-12T16:02:27.362Z,-3.99
2022-12-12T16:05:35.936Z,-4.11
2022-12-12T16:08:31.975Z,-4.17
2022-12-12T16:11:50.369Z,-4.19
2022-12-12T16:14:41.343Z,-4.20
2022-12-12T16:17:29.991Z,-4.24
2022-12-12T16:20:16.666Z,-4.50
2022-12-12T16:23:29.582Z,-4.39
2022-12-12T16:26:15.851Z,-4.32
2022-12-12T16:29:04.048Z,-4.53
2022-12-12T16:31:50.732Z,-4.51
2022-12-12T16:34:37.340Z,-4.58
2022-12-12T16:37:23.709Z,-4.51
2022-12-12T16:40:15.533Z,-4.09
2022-12-12T16:43:09.318Z,-4.25
2022-12-12T16:45:57.529Z,-4.46
2022-12-12T16:48:43.908Z,-4.59
2022-12-12T16:51:33.566Z,-4.45
2022-12-12T16:54:20.024Z,-4.47
2022-12-12T16:57:06.258Z,-4.75
2022-12-12T16:59:52.552Z,-4.83
2022-12-12T17:02:40.261Z,-4.99
2022-12-12T17:05:27.364Z,-5.13
2022-12-12T17:08:18.137Z,-4.97
2022-12-12T17:11:10.040Z,-5.00
2022-12-12T17:13:57.053Z,-5.05
2022-12-12T17:16:43.583Z,-5.10
2022-12-12T17:19:30.598Z,-5.13
2022-12-12T17:22:17.139Z,-5.16
2022-12-12T17:25:03.681Z,-5.26
2022-12-12T17:27:51.755Z,-5.16
2022-12-12T17:30:39.787Z,-5.18
2022-12-12T17:33:26.813Z,-5.07
2022-12-12T17:36:13.634Z,-5.14
2022-12-12T17:39:00.244Z,-5.18
2022-12-12T17:41:46.495Z,-5.21
2022-12-12T17:44:33.166Z,-5.28
2022-12-12T17:47:19.368Z,-5.24
2022-12-12T17:50:09.092Z,-5.16
2022-12-12T17:52:55.363Z,-5.33
2022-12-12T17:55:51.465Z,-5.32
2022-12-12T17:58:45.648Z,-5.29
2022-12-12T18:01:32.528Z,-5.40
2022-12-12T18:04:27.645Z,-5.49
2022-12-12T18:07:15.117Z,-5.56
2022-12-12T18:10:01.329Z,-5.33
2022-12-12T18:12:51.550Z,-5.38
2022-12-12T18:15:38.277Z,-5.41
2022-12-12T18:18:26.211Z,-5.51
2022-12-12T18:21:35.820Z,-5.60
2022-12-12T18:24:24.879Z,-5.60
2022-12-12T18:27:11.405Z,-5.67
2022-12-12T18:29:57.720Z,-5.72
2022-12-12T18:32:44.226Z,-5.52
2022-12-12T18:35:30.499Z,-5.80
2022-12-12T18:38:16.875Z,-5.76
2022-12-12T18:41:04.363Z,-5.83
2022-12-12T18:43:50.807Z,-5.94
2022-12-12T18:46:42.637Z,-5.98
2022-12-12T18:49:29.508Z,-6.00
2022-12-12T18:52:15.901Z,-6.10
2022-12-12T18:55:02.207Z,-6.15
2022-12-12T18:57:48.769Z,-6.14
2022-12-12T19:00:35.493Z,-6.07
2022-12-12T19:03:22.032Z,-6.15
2022-12-12T19:06:11.912Z,-5.86
2022-12-12T19:08:58.652Z,-5.91
2022-12-12T19:11:47.157Z,-5.71
2022-12-12T19:14:59.643Z,-5.95
2022-12-12T19:17:40.389Z,-6.09
2022-12-12T19:20:27.264Z,-6.44
2022-12-12T19:23:16.055Z,-6.48
2022-12-12T19:26:17.600Z,-6.30
2022-12-12T19:29:10.415Z,-6.51
2022-12-12T19:31:58.652Z,-6.47
2022-12-12T19:34:45.400Z,-6.71
2022-12-12T19:37:31.571Z,-6.62
2022-12-12T19:40:18.369Z,-6.95
2022-12-12T19:43:04.741Z,-6.73
2022-12-12T19:45:50.962Z,-6.70
2022-12-12T19:48:38.254Z,-6.58
2022-12-12T19:51:26.106Z,-6.58
2022-12-12T19:54:15.723Z,-6.40
2022-12-12T19:57:03.184Z,-6.51
2022-12-12T19:59:50.384Z,-6.74
2022-12-12T20:02:37.114Z,-6.66
2022-12-12T20:05:23.416Z,-6.80
2022-12-12T20:08:09.655Z,-6.82
2022-12-12T20:10:56.495Z,-6.79
2022-12-12T20:13:43.448Z,-7.08
2022-12-12T20:16:30.419Z,-6.70
2022-12-12T20:19:17.778Z,-7.06
2022-12-12T20:22:04.635Z,-6.89
2022-12-12T20:24:50.903Z,-6.93
2022-12-12T20:27:37.430Z,-6.92
2022-12-12T20:30:23.646Z,-6.93
2022-12-12T20:33:09.816Z,-6.90
2022-12-12T20:36:01.012Z,-6.82
2022-12-12T20:38:48.530Z,-6.52
2022-12-12T20:41:38.591Z,-6.74
2022-12-12T20:44:25.784Z,-6.58
2022-12-12T20:47:17.008Z,-6.72
2022-12-12T20:50:03.812Z,-6.89
2022-12-12T20:52:50.428Z,-6.82
2022-12-12T20:55:36.845Z,-6.77
2022-12-12T20:58:23.568Z,-6.70
2022-12-12T21:01:15.658Z,-6.96
2022-12-12T21:04:04.493Z,-6.96
2022-12-12T21:06:51.676Z,-7.22
2022-12-12T21:09:38.547Z,-7.01
2022-12-12T21:12:25.200Z,-6.99
2022-12-12T21:15:11.593Z,-7.08
2022-12-12T21:17:57.879Z,-6.75
2022-12-12T21:20:45.015Z,-6.68
2022-12-12T21:23:32.670Z,-6.86
2022-12-12T21:26:28.411Z,-7.20
2022-12-12T21:29:16.019Z,-7.29
2022-12-12T21:32:02.451Z,-7.50
2022-12-12T21:34:48.640Z,-7.50
2022-12-12T21:37:40.192Z,-7.37
2022-12-12T21:40:27.416Z,-7.47
2022-12-12T21:43:13.913Z,-7.39
2022-12-12T21:46:22.274Z,-7.25
2022-12-12T21:49:41.621Z,-7.51
2022-12-12T21:52:28.186Z,-7.26
2022-12-12T21:55:15.161Z,-7.44
2022-12-12T21:58:01.721Z,-7.31
2022-12-12T22:00:48.076Z,-7.27
2022-12-12T22:03:34.727Z,-7.36
2022-12-12T22:06:22.293Z,-7.33
2022-12-12T22:09:10.532Z,-7.49
2022-12-12T22:12:03.518Z,-7.39
2022-12-12T22:14:51.082Z,-7.69
2022-12-12T22:17:37.431Z,-7.91
2022-12-12T22:20:23.809Z,-7.80
2022-12-12T22:23:10.160Z,-7.84
2022-12-12T22:25:56.247Z,-7.75
2022-12-12T22:28:43.380Z,-7.49
2022-12-12T22:31:32.401Z,-7.66
2022-12-12T22:34:24.409Z,-7.75
2022-12-12T22:37:10.885Z,-7.58
2022-12-12T22:39:57.603Z,-7.67
2022-12-12T22:42:43.876Z,-7.72
2022-12-12T22:45:30.005Z,-7.78
2022-12-12T22:48:16.649Z,-7.59
2022-12-12T22:51:17.348Z,-7.56
2022-12-12T22:54:05.220Z,-7.51
2022-12-12T22:56:51.780Z,-7.53
2022-12-12T22:59:38.091Z,-7.91
2022-12-12T23:02:25.347Z,-7.98
2022-12-12T23:05:12.307Z,-8.14
2022-12-12T23:07:58.977Z,-8.11
2022-12-12T23:10:45.480Z,-7.94
2022-12-12T23:13:31.976Z,-7.91
2022-12-12T23:16:20.422Z,-7.69
2022-12-12T23:19:09.144Z,-7.69
2022-12-12T23:21:55.300Z,-7.66
2022-12-12T23:24:41.616Z,-7.74
2022-12-12T23:27:27.954Z,-7.91
2022-12-12T23:30:14.158Z,-7.82
2022-12-12T23:33:00.461Z,-8.04
2022-12-12T23:35:50.395Z,-7.99
2022-12-12T23:38:37.335Z,-7.85
2022-12-12T23:41:24.584Z,-7.83
2022-12-12T23:44:16.358Z,-7.97
2022-12-12T23:47:03.031Z,-8.09
2022-12-12T23:49:49.298Z,-8.16
2022-12-12T23:52:35.614Z,-8.10
2022-12-12T23:55:21.948Z,-8.00
2022-12-12T23:58:08.073Z,-7.79
